This is the latest recevied weather packets stored in our database for station/object PA3GJX-13. If no packets are shown the sender has not sent any weather packets the latest 10 day(s).
| Time | Temp. | Humidity | Pressure | Rain* | Wind** | Luminosity | Snow |
|---|---|---|---|---|---|---|---|
| 1777232118 | 23.33° C | 29% | 1039.1 hPa | - | - | - | - |
| 1777230918 | 23.33° C | 29% | 1039.1 hPa | - | - | - | - |
| 1777229718 | 23.89° C | 28% | 1038.8 hPa | - | - | - | - |
| 1777228518 | 24.44° C | 28% | 1038.6 hPa | - | - | - | - |
| 1777227318 | 24.44° C | 27% | 1038.5 hPa | - | - | - | - |
| 1777226118 | 23.89° C | 27% | 1038.4 hPa | - | - | - | - |
| 1777224918 | 19.44° C | 29% | 1038.5 hPa | - | - | - | - |
| 1777223718 | 22.78° C | 26% | 1038.4 hPa | - | - | - | - |
| 1777222518 | 22.78° C | 26% | 1038.5 hPa | - | - | - | - |
| 1777221318 | 23.33° C | 26% | 1038.5 hPa | - | - | - | - |
| 1777220118 | 23.33° C | 25% | 1038.7 hPa | - | - | - | - |
| 1777218918 | 22.78° C | 27% | 1038.7 hPa | - | - | - | - |
| 1777217717 | 22.78° C | 26% | 1038.7 hPa | - | - | - | - |
| 1777216517 | 25° C | 24% | 1038.9 hPa | - | - | - | - |
| 1777215320 | 26.11° C | 23% | 1039.1 hPa | - | - | - | - |
| 1777214117 | 26.67° C | 25% | 1039.1 hPa | - | - | - | - |
| 1777212917 | 26.67° C | 25% | 1039.4 hPa | - | - | - | - |
| 1777211717 | 26.11° C | 26% | 1039.7 hPa | - | - | - | - |
| 1777210517 | 25.56° C | 26% | 1039.9 hPa | - | - | - | - |
| 1777209317 | 25° C | 26% | 1039.9 hPa | - | - | - | - |
| 1777208117 | 24.44° C | 27% | 1040 hPa | - | - | - | - |
| 1777206917 | 23.89° C | 29% | 1040 hPa | - | - | - | - |
| 1777205717 | 23.89° C | 29% | 1040.2 hPa | - | - | - | - |
| 1777204517 | 23.33° C | 29% | 1040.3 hPa | - | - | - | - |
| 1777203317 | 23.33° C | 29% | 1040.4 hPa | - | - | - | - |
* Rain since midnight (hover to see other rain measurements)
** Current wind speed in m/s (hover to see current wind gust speed)